Home PIREPS Pireps

Flight BEL3598

  • Submitted By: Vincent Fourni
  • Departure Airport: Marseille-Provence (LFML)
  • Arrival Airport: Bruxelles National (EBBR)
  • Aircraft: BAE AVRO RJ1 (OO-DWB)
  • Flight Time: 01.49
  • Date Submitted: 26/05/2019
  • Status: Accepted
Flight Details
Gross Revenue:
(83 load / € 112.00 per unit
€ 9,296.00
Fuel Cost:
(4154 fuel used @ 5.1 / unit)
€ 21,185.40

Additional Log Information:

View Log

Aircraft Used in flight is PMDG 737-800NGX Brussels Airlines Winglets
17:25 Brakes are On
17:27 Brakes are Released
17:34 Brakes are On
17:35 Brakes are Released
17:44 You Took off @ 171 Knots and Flaps at Position 3
Departure Weather
LFML 261530Z AUTO 25011KT CAVOK 24/12 Q1012 TEMPO 32015KTrn
17:45 Landing Gear Up @ 178 Knots and 420 Feet
17:48 Above FL100 you need to switch of the landing lights
19:00 You exceeded maximum bank angle
19:06 Landing Gear Down @ 219 Knots and 1330 Feet
19:07 You Landed @ 181 Knots and with -600 Vertical Speed
Arrival Weather
EBBR 261650Z 24011KT 9999 BKN031 18/12 Q1012 NOSIGrn
19:07 Your Landing was very hard
19:07 Paused
19:12 Unpaused
19:12 Paused
19:13 Unpaused
19:13 Brakes are On
19:19 Brussels Bel-Track1.0.1.2

Route Map

Corporate About Us Our Team Vacancies Information Fleet Route Network Rules and Regulations Operations Flight Schedules Event Center Tours Partners IVAO Vatsim Acars dev FSCB

fb Users Online No pilots online!
0 Pilot(s) and 140 Guest(s) Online
CMS by phpVMS - Design by Crazycreatives.com - Copyright © 2020 - Brussels Airlines Virtual